Main page
METAR-TAF:

METAR-TAF

Airports :

Cairo, Egypt

Cairo International Airport

latitude: 30-08N, longitude: 031-24E, elevation: 64 m

Current weather observation

The report was made 36 minutes ago, at 20:00 UTC
Wind 13 kt from the North
Temperature 27°C
Humidity 62%
Pressure 1013 hPa
Visibility 10 km or more
no clouds below 1500 m and no cumulonimbus

METAR: HECA 232000Z 35013KT CAVOK 27/19 Q1013 NOSIG

Time: 22:36 (20:36 UTC)

Forecast

The report was made 3 hours and 36 minutes ago, at 17:00 UTC
Forecast valid from 23 at 18 UTC to 24 at 24 UTC
Wind 12 kt from the North/Northwest
Visibility 10 km or more
no clouds below 1500 m and no cumulonimbus
Temporary
from 24 at 02 UTC to 24 at 06 UTC
Wind 3 kt from variable directions

TAF: HECA 231700Z 2318/2424 34012KT CAVOK TEMPO 2402/2406 VRB03KT 4000BR NSC

Weather observations and forecasts of more than 4000 airports (METAR and TAF reports).

The available stations are represented by yellow and red dots on the map.

Hover mouse over dot to see the name of the station.

Then click to see weather observations and forecasts.

To change the map : click on the green buttons with a black cross to zoom in, on the green button with a dash to zoom out, or on the green arrows for adjacent maps.


METAR-TAF: